Louisiana State University, Louisiana
Current Conditions -  °F | °C
As of 12:53 PM on Saturday 25 Oct 2014 (Local Time) from KBTR Reporting Station
Clear Clear  
Wind Chill: 78°   Ceiling: Unl
Heat Index: 79°   Visibility: 10mi
Dew Point: 54°   Wind: 5mph
Humidity: 43%   Direction: 330°NNW
Pressure: 30.14"   Gusts: NA
Location:  30.4089°N, 91.1938°W
Report Text: KBTR 251753Z 33004KT 10SM CLR 26/12 A3014 RMK AO2 SLP205 T02560122 10256 20078 58015
Loading
Personal Weather Stations






























Interactive Weather Map
Tropical Storm Tracking
New forecast layout! Learn more

10-Day Weather Forecast

Advertisements
Track Severe Weather on mobile